Airfield :
LOGIN :

Register | Disclaimer

   EN    FR    IT 

 










Legend :    VFR   Marginal VFR   IFR   Intensive IFR   Very Intensive IFR
Visi :
Ceiling :
>= 8 km
>= 3000ft
5 to 8 km
1000 to 3000 ft
1500m to 5 km
500 to 1000 ft
800 to 1500m
200 to 500 ft
< 800m
< 200 ft
Symbols :   Thunderstorms  Fog  Heavy snow  Heavy precipitations  Wind > 20 kt
SIGMETs :     Misc.  Thunderstorms  Icing  Turbulence  Mountain Waves  Volcanic Ashes






- Airport Elevation : 489 ft
- IATA code : GDN


EPGD - Gdansk

CURRENT METAR :
  • 271030Z 29016KT 9999 SCT016 01/M03 Q1008 R11/190095

EXPIRED METARs :
  • 271000Z 29016KT 9999 FEW015 01/M03 Q1007 R11/190095
  • 270930Z 29014KT 9999 FEW015 00/M03 Q1007 R11/190095
  • 270900Z 28014KT 9999 FEW018 M00/M03 Q1007 R11/190095
  • 270830Z 29012KT CAVOK M01/M03 Q1007 R11/190095
  • 270800Z 28011KT 9999 FEW018 M01/M03 Q1007 R11/190095

TAF TAF EPGD
Valid from the 27 at 06:00 until the 28 at 06:00 UTC


270530Z 2706/2806 28012KT 9999 BKN025
PROB30 2721/2802 3000 BR BKN006
BECMG 2801/2803 19010KT



MET'MAP, your aeronautical weather chart ! - Copyright ORBIFLY December 2007 - Disclaimer

ORBIFLY MET'MAP TEAM :

Programming & Development : Alexandra Zaïnal
Concept & original design : Baudouin d'Aumeries
Assistance for programming : Marc-Olivier Méhu
Technical & hardware support : Manuel Goepfert

Contact : metmap@orbifly.com




SOURCES & CREDITS :

   NOAA